createdAt,value
2023-12-09T00:00:35.955Z,99612.97
2023-12-09T00:03:03.801Z,99622.06
2023-12-09T00:05:31.667Z,99622.91
2023-12-09T00:07:59.426Z,99630.53
2023-12-09T00:10:26.182Z,99614.84
2023-12-09T00:12:55.794Z,99625.03
2023-12-09T00:15:23.705Z,99630.53
2023-12-09T00:17:52.355Z,99627.28
2023-12-09T00:20:20.241Z,99622.13
2023-12-09T00:22:47.836Z,99625.69
2023-12-09T00:25:15.782Z,99629.53
2023-12-09T00:27:43.459Z,99634.34
2023-12-09T00:30:12.985Z,99637.41
2023-12-09T00:32:40.685Z,99647.72
2023-12-09T00:35:09.067Z,99646.66
2023-12-09T00:37:36.705Z,99651.53
2023-12-09T00:40:04.830Z,99645.47
2023-12-09T00:42:32.465Z,99637.06
2023-12-09T00:45:00.266Z,99644.44
2023-12-09T00:47:29.360Z,99641.13
2023-12-09T00:49:57.047Z,99634.94
2023-12-09T00:52:25.075Z,99643.34
2023-12-09T00:54:52.846Z,99646.56
2023-12-09T00:57:22.153Z,99645.91
2023-12-09T00:59:49.958Z,99646.28
2023-12-09T01:02:17.642Z,99656.94
2023-12-09T01:04:46.927Z,99654.19
2023-12-09T01:07:14.590Z,99650.66
2023-12-09T01:09:42.292Z,99650.53
2023-12-09T01:12:09.925Z,99648.59
2023-12-09T01:14:37.536Z,99658.50
2023-12-09T01:17:05.494Z,99654.53
2023-12-09T01:19:33.223Z,99642.44
2023-12-09T01:22:02.283Z,99649.78
2023-12-09T01:24:29.962Z,99658.84
2023-12-09T01:26:57.631Z,99662.19
2023-12-09T01:29:25.248Z,99666.53
2023-12-09T01:31:52.852Z,99676.72
2023-12-09T01:34:20.601Z,99678.69
2023-12-09T01:36:48.413Z,99682.13
2023-12-09T01:39:18.324Z,99680.63
2023-12-09T01:41:46.043Z,99680.63
2023-12-09T01:44:13.667Z,99674.50
2023-12-09T01:46:43.859Z,99674.31
2023-12-09T01:49:12.401Z,99666.75
2023-12-09T01:51:40.419Z,99661.63
2023-12-09T01:54:08.681Z,99663.31
2023-12-09T01:56:37.761Z,99672.03
2023-12-09T01:59:05.982Z,99667.66
2023-12-09T02:01:37.472Z,99662.91
2023-12-09T02:04:05.579Z,99667.97
2023-12-09T02:06:34.356Z,99671.94
2023-12-09T02:09:02.176Z,99672.63
2023-12-09T02:11:37.926Z,99664.59
2023-12-09T02:14:10.423Z,99671.53
2023-12-09T02:16:44.429Z,99668.00
2023-12-09T02:19:15.833Z,99673.63
2023-12-09T02:22:03.245Z,99668.38
2023-12-09T02:24:32.671Z,99660.66
2023-12-09T02:27:05.367Z,99653.28
2023-12-09T02:29:37.177Z,99649.72
2023-12-09T02:32:07.854Z,99646.06
2023-12-09T02:34:39.631Z,99633.63
2023-12-09T02:37:10.065Z,99628.63
2023-12-09T02:39:39.813Z,99628.75
2023-12-09T02:42:08.004Z,99627.78
2023-12-09T02:44:37.087Z,99630.81
2023-12-09T02:47:05.032Z,99621.50
2023-12-09T02:49:32.804Z,99612.88
2023-12-09T02:52:00.499Z,99614.53
2023-12-09T02:54:28.152Z,99615.09
2023-12-09T02:56:57.144Z,99605.78
2023-12-09T02:59:24.851Z,99604.91
2023-12-09T03:01:52.464Z,99612.97
2023-12-09T03:04:20.158Z,99598.03
2023-12-09T03:06:47.893Z,99601.19
2023-12-09T03:09:15.724Z,99606.38
2023-12-09T03:11:43.390Z,99591.34
2023-12-09T03:14:12.477Z,99595.47
2023-12-09T03:16:40.272Z,99590.50
2023-12-09T03:19:08.228Z,99586.06
2023-12-09T03:21:36.025Z,99586.44
2023-12-09T03:24:03.794Z,99586.91
2023-12-09T03:26:31.531Z,99593.69
2023-12-09T03:28:59.244Z,99593.44
2023-12-09T03:31:28.352Z,99590.28
2023-12-09T03:33:56.102Z,99583.63
2023-12-09T03:36:24.019Z,99585.41
2023-12-09T03:38:51.679Z,99574.44
2023-12-09T03:41:19.656Z,99586.84
2023-12-09T03:43:48.156Z,99578.66
2023-12-09T03:46:15.805Z,99587.38
2023-12-09T03:48:44.873Z,99573.22
2023-12-09T03:51:12.618Z,99581.88
2023-12-09T03:53:40.290Z,99584.91
2023-12-09T03:56:08.880Z,99589.63
2023-12-09T03:58:37.240Z,99587.91
2023-12-09T04:01:05.933Z,99583.31
2023-12-09T04:03:33.735Z,99591.19
2023-12-09T04:06:04.612Z,99584.88
2023-12-09T04:08:32.387Z,99581.84
2023-12-09T04:11:00.372Z,99578.06
2023-12-09T04:13:28.280Z,99586.41
2023-12-09T04:15:56.032Z,99568.88
2023-12-09T04:18:22.827Z,99575.53
2023-12-09T04:20:50.538Z,99592.69
2023-12-09T04:23:19.938Z,99588.16
2023-12-09T04:25:47.599Z,99591.19
2023-12-09T04:28:15.636Z,99578.31
2023-12-09T04:30:43.277Z,99582.69
2023-12-09T04:33:11.227Z,99568.69
2023-12-09T04:35:38.929Z,99578.75
2023-12-09T04:38:06.594Z,99578.03
2023-12-09T04:40:35.591Z,99571.16
2023-12-09T04:43:03.248Z,99567.50
2023-12-09T04:45:30.926Z,99565.72
2023-12-09T04:47:58.735Z,99562.69
2023-12-09T04:50:26.713Z,99562.75
2023-12-09T04:52:54.407Z,99561.47
2023-12-09T04:55:22.077Z,99560.22
2023-12-09T04:57:51.101Z,99544.97
2023-12-09T05:00:19.654Z,99531.34
2023-12-09T05:02:47.361Z,99542.03
2023-12-09T05:05:16.324Z,99540.06
2023-12-09T05:07:43.983Z,99535.78
2023-12-09T05:10:13.421Z,99542.91
2023-12-09T05:12:41.253Z,99534.47
2023-12-09T05:15:12.074Z,99534.09
2023-12-09T05:17:39.864Z,99532.78
2023-12-09T05:20:10.862Z,99528.19
2023-12-09T05:22:38.886Z,99528.44
2023-12-09T05:25:07.631Z,99528.06
2023-12-09T05:27:35.376Z,99529.91
2023-12-09T05:30:03.648Z,99521.88
2023-12-09T05:32:32.675Z,99523.63
2023-12-09T05:35:00.321Z,99527.75
2023-12-09T05:37:28.011Z,99514.81
2023-12-09T05:39:55.633Z,99511.81
2023-12-09T05:42:23.335Z,99513.78
2023-12-09T05:44:54.403Z,99505.66
2023-12-09T05:47:22.081Z,99499.19
2023-12-09T05:49:51.081Z,99505.88
2023-12-09T05:52:17.837Z,99492.63
2023-12-09T05:54:45.477Z,99496.09
2023-12-09T05:57:13.142Z,99495.06
2023-12-09T05:59:40.849Z,99502.78
2023-12-09T06:02:08.718Z,99491.38
2023-12-09T06:04:36.442Z,99498.34
2023-12-09T06:07:05.797Z,99475.66
2023-12-09T06:09:33.649Z,99491.81
2023-12-09T06:12:01.491Z,99490.63
2023-12-09T06:14:29.213Z,99492.72
2023-12-09T06:16:56.782Z,99496.41
2023-12-09T06:19:24.516Z,99491.38
2023-12-09T06:21:52.115Z,99495.34
2023-12-09T06:24:21.126Z,99490.00
2023-12-09T06:26:48.835Z,99474.94
2023-12-09T06:29:16.582Z,99475.28
2023-12-09T06:31:44.278Z,99477.22
2023-12-09T06:34:12.138Z,99470.13
2023-12-09T06:36:39.935Z,99480.88
2023-12-09T06:39:07.780Z,99474.78
2023-12-09T06:41:40.758Z,99481.22
2023-12-09T06:44:08.581Z,99458.56
2023-12-09T06:46:38.412Z,99464.69
2023-12-09T06:49:06.798Z,99468.31
2023-12-09T06:51:35.316Z,99464.22
2023-12-09T06:54:04.094Z,99479.53
2023-12-09T06:56:31.950Z,99481.47
2023-12-09T06:59:01.259Z,99478.53
2023-12-09T07:01:29.290Z,99484.25
2023-12-09T07:03:57.593Z,99484.28
2023-12-09T07:06:27.035Z,99482.44
2023-12-09T07:08:55.788Z,99477.84
2023-12-09T07:11:24.296Z,99479.34
2023-12-09T07:13:52.684Z,99477.19
2023-12-09T07:16:21.696Z,99476.34
2023-12-09T07:18:52.208Z,99485.38
2023-12-09T07:21:20.108Z,99479.66
2023-12-09T07:23:47.762Z,99484.09
2023-12-09T07:26:15.386Z,99493.19
2023-12-09T07:28:43.136Z,99493.69
2023-12-09T07:31:10.857Z,99495.00
2023-12-09T07:33:40.078Z,99498.91
2023-12-09T07:36:08.565Z,99488.00
2023-12-09T07:38:36.441Z,99484.38
2023-12-09T07:41:05.098Z,99479.44
2023-12-09T07:43:33.197Z,99482.22
2023-12-09T07:46:00.854Z,99489.81
2023-12-09T07:48:28.636Z,99489.03
2023-12-09T07:50:57.881Z,99481.16
2023-12-09T07:53:25.590Z,99478.69
2023-12-09T07:55:53.271Z,99476.41
2023-12-09T07:58:21.239Z,99474.47
2023-12-09T08:00:49.115Z,99461.00
2023-12-09T08:03:17.016Z,99460.50
2023-12-09T08:05:47.283Z,99455.94
2023-12-09T08:08:16.503Z,99437.38
2023-12-09T08:10:44.395Z,99431.91
2023-12-09T08:13:13.480Z,99437.03
2023-12-09T08:15:41.937Z,99456.28
2023-12-09T08:18:09.945Z,99457.47
2023-12-09T08:20:37.839Z,99454.44
2023-12-09T08:23:05.665Z,99454.41
2023-12-09T08:25:34.798Z,99454.13
2023-12-09T08:28:02.484Z,99444.72
2023-12-09T08:30:30.180Z,99442.06
2023-12-09T08:32:58.189Z,99440.88
2023-12-09T08:35:26.020Z,99431.25
2023-12-09T08:37:53.866Z,99426.88
2023-12-09T08:40:22.218Z,99425.72
2023-12-09T08:42:51.493Z,99423.03
2023-12-09T08:45:20.096Z,99415.31
2023-12-09T08:47:48.270Z,99410.06
2023-12-09T08:52:46.694Z,99416.97
2023-12-09T08:55:14.462Z,99408.81
2023-12-09T08:57:42.145Z,99398.44
2023-12-09T09:00:12.389Z,99408.47
2023-12-09T09:02:40.103Z,99403.75
2023-12-09T09:05:08.520Z,99406.94
2023-12-09T09:07:39.794Z,99406.81
2023-12-09T09:10:08.203Z,99394.81
2023-12-09T09:12:36.067Z,99392.38
2023-12-09T09:15:07.160Z,99386.91
2023-12-09T09:17:37.798Z,99381.88
2023-12-09T09:20:06.831Z,99387.44
2023-12-09T09:22:35.322Z,99372.81
2023-12-09T09:25:03.634Z,99371.56
2023-12-09T09:27:31.449Z,99360.22
2023-12-09T09:29:59.340Z,99356.75
2023-12-09T09:32:27.314Z,99342.97
2023-12-09T09:34:56.673Z,99342.03
2023-12-09T09:37:25.472Z,99341.41
2023-12-09T09:39:53.217Z,99353.44
2023-12-09T09:42:27.684Z,99348.22
2023-12-09T09:45:06.601Z,99346.63
2023-12-09T09:47:38.768Z,99349.44
2023-12-09T09:50:09.461Z,99344.00
2023-12-09T09:52:38.122Z,99339.88
2023-12-09T09:55:08.096Z,99333.63
2023-12-09T09:57:36.250Z,99341.53
2023-12-09T10:00:13.801Z,99338.53
2023-12-09T10:02:43.813Z,99338.28
2023-12-09T10:05:13.842Z,99327.28
2023-12-09T10:07:41.839Z,99320.19
2023-12-09T10:10:10.382Z,99306.06
2023-12-09T10:12:38.613Z,99317.06
2023-12-09T10:15:07.714Z,99299.91
2023-12-09T10:17:35.880Z,99298.25
2023-12-09T10:20:07.141Z,99304.25
2023-12-09T10:22:37.581Z,99300.94
2023-12-09T10:25:05.952Z,99297.16
2023-12-09T10:27:34.743Z,99296.78
2023-12-09T10:30:03.905Z,99295.28
2023-12-09T10:32:31.955Z,99291.72
2023-12-09T10:35:03.424Z,99280.84
2023-12-09T10:37:34.040Z,99272.38
2023-12-09T10:40:04.816Z,99263.94
2023-12-09T10:42:33.087Z,99243.22
2023-12-09T10:45:04.278Z,99227.59
2023-12-09T10:47:32.211Z,99222.16
2023-12-09T10:50:00.119Z,99211.75
2023-12-09T10:52:28.153Z,99211.94
2023-12-09T10:54:56.013Z,99208.44
2023-12-09T10:57:25.816Z,99198.59
2023-12-09T10:59:54.189Z,99174.88
2023-12-09T11:02:23.280Z,99171.44
2023-12-09T11:04:52.002Z,99161.38
2023-12-09T11:07:20.684Z,99141.31
2023-12-09T11:09:48.761Z,99133.75
2023-12-09T11:12:29.471Z,99134.75
2023-12-09T11:15:01.931Z,99125.00
2023-12-09T11:17:36.605Z,99112.53
2023-12-09T11:20:12.245Z,99108.72
2023-12-09T11:22:41.408Z,99103.16
2023-12-09T11:25:12.258Z,99104.97
2023-12-09T11:27:41.672Z,99091.63
2023-12-09T11:30:30.854Z,99094.28
2023-12-09T11:32:59.265Z,99083.25
2023-12-09T11:35:28.004Z,99071.06
2023-12-09T11:37:56.793Z,99046.53
2023-12-09T11:40:24.966Z,99055.72
2023-12-09T11:42:55.094Z,99059.00
2023-12-09T11:45:23.401Z,99055.91
2023-12-09T11:47:51.866Z,99046.19
2023-12-09T11:50:19.880Z,99045.88
2023-12-09T11:52:48.942Z,99051.44
2023-12-09T11:55:18.055Z,99041.88
2023-12-09T11:57:46.329Z,99030.53
2023-12-09T12:00:16.753Z,99013.22
2023-12-09T12:02:44.870Z,99008.53
2023-12-09T12:05:13.630Z,99012.13
2023-12-09T12:07:41.884Z,98999.25
2023-12-09T12:10:11.134Z,98986.75
2023-12-09T12:12:39.402Z,98979.16
2023-12-09T12:15:08.647Z,98987.06
2023-12-09T12:17:42.456Z,98979.75
2023-12-09T12:20:13.030Z,98985.16
2023-12-09T12:22:41.943Z,98970.25
2023-12-09T12:25:11.291Z,98962.50
2023-12-09T12:27:44.920Z,98964.78
2023-12-09T12:30:14.341Z,98958.25
2023-12-09T12:32:46.181Z,98950.47
2023-12-09T12:35:14.036Z,98947.50
2023-12-09T12:37:42.870Z,98944.19
2023-12-09T12:40:12.278Z,98929.78
2023-12-09T12:42:40.497Z,98914.50
2023-12-09T12:45:17.623Z,98901.28
2023-12-09T12:47:47.290Z,98905.38
2023-12-09T12:50:15.659Z,98892.69
2023-12-09T12:52:43.709Z,98878.72
2023-12-09T12:55:11.683Z,98881.03
2023-12-09T12:57:39.973Z,98883.84
2023-12-09T13:00:12.574Z,98871.69
2023-12-09T13:02:40.834Z,98851.56
2023-12-09T13:05:10.304Z,98845.75
2023-12-09T13:07:38.374Z,98834.16
2023-12-09T13:10:07.412Z,98831.72
2023-12-09T13:12:35.269Z,98830.53
2023-12-09T13:15:03.548Z,98830.75
2023-12-09T13:17:31.404Z,98831.22
2023-12-09T13:19:59.274Z,98826.25
2023-12-09T13:22:28.886Z,98826.34
2023-12-09T13:24:56.912Z,98818.16
2023-12-09T13:27:25.058Z,98807.75
2023-12-09T13:29:52.962Z,98804.28
2023-12-09T13:32:20.707Z,98794.69
2023-12-09T13:34:48.504Z,98800.25
2023-12-09T13:37:16.685Z,98786.72
2023-12-09T13:39:46.240Z,98780.47
2023-12-09T13:42:14.344Z,98765.84
2023-12-09T13:44:42.550Z,98756.34
2023-12-09T13:47:10.520Z,98749.66
2023-12-09T13:49:38.401Z,98749.03
2023-12-09T13:52:06.616Z,98740.75
2023-12-09T13:54:34.722Z,98735.44
2023-12-09T13:57:03.971Z,98722.53
2023-12-09T13:59:31.871Z,98711.44
2023-12-09T14:01:59.570Z,98695.19
2023-12-09T14:04:27.596Z,98686.53
2023-12-09T14:06:55.554Z,98688.06
2023-12-09T14:09:24.320Z,98677.97
2023-12-09T14:11:52.140Z,98676.88
2023-12-09T14:14:22.312Z,98674.06
2023-12-09T14:16:50.322Z,98662.81
2023-12-09T14:19:19.067Z,98650.84
2023-12-09T14:21:47.014Z,98638.63
2023-12-09T14:24:15.190Z,98626.09
2023-12-09T14:26:43.373Z,98621.41
2023-12-09T14:29:11.308Z,98612.56
2023-12-09T14:31:43.249Z,98601.97
2023-12-09T14:34:11.617Z,98602.69
2023-12-09T14:36:39.808Z,98592.94
2023-12-09T14:39:10.855Z,98586.50
2023-12-09T14:41:40.940Z,98587.09
2023-12-09T14:44:09.409Z,98575.38
2023-12-09T14:46:37.441Z,98564.28
2023-12-09T14:49:07.179Z,98564.38
2023-12-09T14:51:42.676Z,98563.41
2023-12-09T14:54:12.364Z,98535.56
2023-12-09T14:56:40.287Z,98545.50
2023-12-09T14:59:08.579Z,98533.06
2023-12-09T15:01:36.723Z,98509.91
2023-12-09T15:04:06.367Z,98505.81
2023-12-09T15:06:34.670Z,98497.00
2023-12-09T15:09:04.098Z,98471.44
2023-12-09T15:11:31.941Z,98465.13
2023-12-09T15:13:59.688Z,98457.06
2023-12-09T15:16:27.477Z,98456.34
2023-12-09T15:18:55.378Z,98442.19
2023-12-09T15:21:24.618Z,98441.72
2023-12-09T15:23:53.671Z,98437.19
2023-12-09T15:26:21.604Z,98436.72
2023-12-09T15:28:50.472Z,98431.13
2023-12-09T15:31:18.425Z,98406.97
2023-12-09T15:33:46.332Z,98390.44
2023-12-09T15:36:14.780Z,98393.09
2023-12-09T15:38:44.033Z,98391.63
2023-12-09T15:41:11.802Z,98379.75
2023-12-09T15:43:39.649Z,98355.22
2023-12-09T15:46:07.671Z,98338.00
2023-12-09T15:48:35.512Z,98335.75
2023-12-09T15:51:06.177Z,98323.03
2023-12-09T15:53:38.071Z,98290.28
2023-12-09T15:56:08.460Z,98290.19
2023-12-09T15:58:36.571Z,98286.94
2023-12-09T16:01:04.660Z,98277.44
2023-12-09T16:03:32.476Z,98282.50
2023-12-09T16:06:00.304Z,98272.59
2023-12-09T16:08:28.120Z,98258.19
2023-12-09T16:10:55.884Z,98252.69
2023-12-09T16:13:24.988Z,98247.41
2023-12-09T16:15:52.921Z,98255.56
2023-12-09T16:18:20.805Z,98237.81
2023-12-09T16:20:48.649Z,98232.38
2023-12-09T16:23:17.087Z,98234.75
2023-12-09T16:25:44.861Z,98219.31
2023-12-09T16:28:12.604Z,98228.66
2023-12-09T16:30:42.214Z,98221.38
2023-12-09T16:33:10.351Z,98220.31
2023-12-09T16:35:38.804Z,98210.44
2023-12-09T16:38:08.767Z,98209.44
2023-12-09T16:40:37.940Z,98201.38
2023-12-09T16:43:06.239Z,98188.66
2023-12-09T16:45:34.111Z,98186.03
2023-12-09T16:48:03.561Z,98177.41
2023-12-09T16:50:31.425Z,98154.00
2023-12-09T16:52:59.136Z,98159.41
2023-12-09T16:55:26.852Z,98150.47
2023-12-09T16:57:55.095Z,98142.75
2023-12-09T17:00:23.993Z,98133.28
2023-12-09T17:02:51.896Z,98107.22
2023-12-09T17:05:21.260Z,98112.59
2023-12-09T17:07:50.179Z,98109.31
2023-12-09T17:10:18.766Z,98111.84
2023-12-09T17:12:46.682Z,98102.38
2023-12-09T17:15:17.461Z,98106.97
2023-12-09T17:17:45.963Z,98104.69
2023-12-09T17:20:13.943Z,98103.53
2023-12-09T17:22:43.130Z,98103.50
2023-12-09T17:25:11.506Z,98102.22
2023-12-09T17:27:39.405Z,98103.06
2023-12-09T17:30:08.355Z,98100.81
2023-12-09T17:32:36.427Z,98093.34
2023-12-09T17:35:04.323Z,98095.41
2023-12-09T17:37:32.180Z,98103.31
2023-12-09T17:40:01.923Z,98091.53
2023-12-09T17:42:30.552Z,98084.53
2023-12-09T17:44:58.652Z,98078.28
2023-12-09T17:47:26.621Z,98068.25
2023-12-09T17:49:54.849Z,98071.00
2023-12-09T17:52:23.131Z,98077.84
2023-12-09T17:54:51.114Z,98058.72
2023-12-09T17:57:20.517Z,98040.91
2023-12-09T17:59:48.801Z,98049.81
2023-12-09T18:02:17.402Z,98037.78
2023-12-09T18:04:46.531Z,98040.06
2023-12-09T18:07:14.562Z,98033.97
2023-12-09T18:09:42.852Z,98036.38
2023-12-09T18:12:11.438Z,98033.69
2023-12-09T18:14:40.866Z,98029.06
2023-12-09T18:17:09.240Z,98009.81
2023-12-09T18:19:37.270Z,98026.41
2023-12-09T18:22:05.577Z,98019.03
2023-12-09T18:24:33.519Z,98024.91
2023-12-09T18:27:01.461Z,98016.56
2023-12-09T18:29:29.457Z,98014.00
2023-12-09T18:31:58.801Z,98001.03
2023-12-09T18:34:26.722Z,97976.94
2023-12-09T18:36:54.649Z,97973.38
2023-12-09T18:39:23.906Z,97961.44
2023-12-09T18:41:51.787Z,97954.38
2023-12-09T18:44:19.698Z,97954.75
2023-12-09T18:46:47.569Z,97956.22
2023-12-09T18:49:16.893Z,97965.63
2023-12-09T18:51:45.027Z,97959.00
2023-12-09T18:54:12.889Z,97970.00
2023-12-09T18:56:40.898Z,97969.66
2023-12-09T18:59:08.903Z,97962.41
2023-12-09T19:01:38.775Z,97951.69
2023-12-09T19:04:07.043Z,97938.09
2023-12-09T19:06:45.493Z,97926.81
2023-12-09T19:09:17.978Z,97929.66
2023-12-09T19:11:46.753Z,97925.25
2023-12-09T19:14:14.794Z,97937.00
2023-12-09T19:16:43.034Z,97949.59
2023-12-09T19:19:11.268Z,97930.16
2023-12-09T19:21:41.735Z,97925.31
2023-12-09T19:24:10.674Z,97907.28
2023-12-09T19:26:38.926Z,97901.22
2023-12-09T19:29:06.753Z,97882.97
2023-12-09T19:31:34.586Z,97868.56
2023-12-09T19:34:02.450Z,97882.38
2023-12-09T19:36:30.283Z,97890.13
2023-12-09T19:39:00.009Z,97875.69
2023-12-09T19:41:27.728Z,97894.56
2023-12-09T19:43:55.506Z,97876.34
2023-12-09T19:46:23.586Z,97842.88
2023-12-09T19:48:50.504Z,97823.97
2023-12-09T19:51:18.232Z,97835.94
2023-12-09T19:53:46.122Z,97844.25
2023-12-09T19:56:17.019Z,97846.69
2023-12-09T19:58:44.823Z,97856.00
2023-12-09T20:01:13.519Z,97861.28
2023-12-09T20:03:41.628Z,97847.50
2023-12-09T20:06:09.888Z,97872.63
2023-12-09T20:08:37.613Z,97886.00
2023-12-09T20:11:06.314Z,97891.28
2023-12-09T20:13:35.418Z,97921.56
2023-12-09T20:16:04.095Z,97909.94
2023-12-09T20:18:32.168Z,97902.16
2023-12-09T20:21:00.036Z,97912.28
2023-12-09T20:23:27.795Z,97923.66
2023-12-09T20:25:55.500Z,97940.50
2023-12-09T20:28:23.259Z,97949.66
2023-12-09T20:30:53.886Z,97950.47
2023-12-09T20:33:22.033Z,97955.56
2023-12-09T20:35:50.022Z,97981.78
2023-12-09T20:38:18.179Z,97974.88
2023-12-09T20:40:46.175Z,97976.69
2023-12-09T20:43:14.012Z,98010.22
2023-12-09T20:45:41.766Z,97992.50
2023-12-09T20:48:11.130Z,98003.06
2023-12-09T20:50:38.990Z,97994.28
2023-12-09T20:53:10.682Z,98015.47
2023-12-09T20:55:38.973Z,98022.56
2023-12-09T20:58:06.783Z,98035.78
2023-12-09T21:00:34.557Z,98035.16
2023-12-09T21:03:04.199Z,98032.69
2023-12-09T21:05:33.450Z,98040.63
2023-12-09T21:08:01.146Z,98054.25
2023-12-09T21:10:29.064Z,98055.66
2023-12-09T21:12:57.671Z,98048.53
2023-12-09T21:15:26.800Z,98067.47
2023-12-09T21:17:54.837Z,98068.09
2023-12-09T21:20:22.700Z,98071.53
2023-12-09T21:22:52.165Z,98075.78
2023-12-09T21:25:19.951Z,98078.41
2023-12-09T21:27:48.058Z,98100.56
2023-12-09T21:30:16.367Z,98095.88
2023-12-09T21:32:44.094Z,98104.19
2023-12-09T21:35:12.099Z,98124.78
2023-12-09T21:37:39.746Z,98136.56
2023-12-09T21:40:11.054Z,98142.88
2023-12-09T21:42:38.944Z,98156.50
2023-12-09T21:45:07.999Z,98171.94
2023-12-09T21:47:37.629Z,98182.31
2023-12-09T21:50:07.119Z,98188.22
2023-12-09T21:52:34.925Z,98189.06
2023-12-09T21:55:02.739Z,98193.53
2023-12-09T21:57:32.785Z,98207.56
2023-12-09T22:00:00.947Z,98224.84
2023-12-09T22:02:28.246Z,98225.88
2023-12-09T22:04:56.189Z,98224.66
2023-12-09T22:07:24.111Z,98231.78
2023-12-09T22:09:51.857Z,98231.97
2023-12-09T22:12:19.904Z,98248.25
2023-12-09T22:14:48.988Z,98262.28
2023-12-09T22:17:17.606Z,98264.72
2023-12-09T22:19:45.584Z,98274.66
2023-12-09T22:22:13.397Z,98271.63
2023-12-09T22:24:41.310Z,98279.53
2023-12-09T22:27:09.148Z,98287.84
2023-12-09T22:29:37.088Z,98295.59
2023-12-09T22:32:07.139Z,98297.56
2023-12-09T22:34:35.865Z,98311.03
2023-12-09T22:37:03.791Z,98331.94
2023-12-09T22:39:31.656Z,98358.56
2023-12-09T22:41:59.704Z,98369.91
2023-12-09T22:44:27.499Z,98396.97
2023-12-09T22:46:56.059Z,98406.09
2023-12-09T22:49:25.263Z,98429.28
2023-12-09T22:51:53.180Z,98447.16
2023-12-09T22:54:21.137Z,98452.25
2023-12-09T22:56:49.077Z,98476.47
2023-12-09T22:59:16.948Z,98477.09
2023-12-09T23:01:46.220Z,98493.38
2023-12-09T23:04:14.077Z,98503.50
2023-12-09T23:06:43.751Z,98496.81
2023-12-09T23:09:11.523Z,98513.28
2023-12-09T23:11:39.504Z,98520.66
2023-12-09T23:14:10.336Z,98519.00
2023-12-09T23:16:38.105Z,98522.47
2023-12-09T23:19:06.093Z,98530.19
2023-12-09T23:21:34.096Z,98535.00
2023-12-09T23:24:03.455Z,98533.59
2023-12-09T23:26:31.395Z,98531.78
2023-12-09T23:28:59.079Z,98532.22
2023-12-09T23:31:32.009Z,98537.88
2023-12-09T23:34:07.434Z,98531.41
2023-12-09T23:36:35.205Z,98517.19
2023-12-09T23:39:04.783Z,98535.06
2023-12-09T23:41:32.721Z,98533.66
2023-12-09T23:44:00.488Z,98538.25
2023-12-09T23:46:28.359Z,98540.13
2023-12-09T23:48:57.075Z,98549.28
2023-12-09T23:51:25.261Z,98542.53
2023-12-09T23:53:52.937Z,98559.84
2023-12-09T23:56:24.091Z,98561.47
2023-12-09T23:58:51.854Z,98579.34
